createdAt,value
2019-05-18T00:03:15.464Z,100080.59
2019-05-18T00:09:21.453Z,100079.42
2019-05-18T00:15:27.417Z,100077.33
2019-05-18T00:21:33.674Z,100074.80
2019-05-18T00:27:39.567Z,100078.81
2019-05-18T00:33:45.394Z,100072.89
2019-05-18T00:39:51.116Z,100074.31
2019-05-18T00:45:56.972Z,100070.80
2019-05-18T00:52:02.917Z,100079.30
2019-05-18T00:58:08.871Z,100077.19
2019-05-18T01:04:14.729Z,100072.29
2019-05-18T01:10:20.544Z,100076.16
2019-05-18T01:16:28.314Z,100077.73
2019-05-18T01:22:34.085Z,100068.17
2019-05-18T01:28:39.939Z,100069.44
2019-05-18T01:34:45.812Z,100060.69
2019-05-18T01:40:51.546Z,100055.07
2019-05-18T01:46:58.595Z,100053.78
2019-05-18T01:53:04.869Z,100052.66
2019-05-18T01:59:10.656Z,100047.41
2019-05-18T02:05:16.863Z,100050.36
2019-05-18T02:11:22.799Z,100063.92
2019-05-18T02:17:28.562Z,100059.90
2019-05-18T02:23:34.442Z,100063.08
2019-05-18T02:29:40.193Z,100059.27
2019-05-18T02:35:45.930Z,100056.70
2019-05-18T02:41:51.704Z,100062.53
2019-05-18T02:47:57.519Z,100044.91
2019-05-18T02:54:03.367Z,100046.33
2019-05-18T03:00:10.071Z,100037.73
2019-05-18T03:06:15.882Z,100035.88
2019-05-18T03:12:22.345Z,100035.79
2019-05-18T03:18:28.306Z,100043.39
2019-05-18T03:24:34.095Z,100036.20
2019-05-18T03:30:39.953Z,100033.74
2019-05-18T03:36:46.106Z,100037.52
2019-05-18T03:42:52.158Z,100032.63
2019-05-18T03:48:57.949Z,100034.78
2019-05-18T03:55:03.917Z,100039.98
2019-05-18T04:01:10.188Z,100037.70
2019-05-18T04:07:16.044Z,100036.54
2019-05-18T04:13:21.932Z,100035.31
2019-05-18T04:19:44.790Z,100034.50
2019-05-18T04:25:35.226Z,100035.20
2019-05-18T04:31:40.987Z,100041.78
2019-05-18T04:37:46.725Z,100036.95
2019-05-18T04:43:52.809Z,100036.13
2019-05-18T04:50:05.353Z,100041.77
2019-05-18T04:56:06.566Z,100037.86
2019-05-18T05:02:12.489Z,100041.23
2019-05-18T05:08:18.341Z,100043.48
2019-05-18T05:14:24.118Z,100045.36
2019-05-18T05:20:30.029Z,100048.27
2019-05-18T05:26:35.809Z,100047.71
2019-05-18T05:32:41.593Z,100044.98
2019-05-18T05:38:47.800Z,100047.62
2019-05-18T05:44:53.684Z,100046.70
2019-05-18T05:50:59.673Z,100046.40
2019-05-18T05:57:05.733Z,100049.85
2019-05-18T06:03:11.863Z,100054.69
2019-05-18T06:09:17.772Z,100050.46
2019-05-18T06:15:23.597Z,100055.13
2019-05-18T06:21:29.908Z,100060.48
2019-05-18T06:27:37.459Z,100063.81
2019-05-18T06:33:43.739Z,100065.23
2019-05-18T06:39:49.639Z,100059.59
2019-05-18T06:45:55.831Z,100064.05
2019-05-18T06:52:01.603Z,100071.08
2019-05-18T06:58:07.742Z,100070.06
2019-05-18T07:04:13.638Z,100078.75
2019-05-18T07:10:19.555Z,100085.91
2019-05-18T07:16:25.382Z,100076.23
2019-05-18T07:22:32.433Z,100083.39
2019-05-18T07:34:57.235Z,100082.91
2019-05-18T07:41:03.167Z,100082.91
2019-05-18T07:47:08.967Z,100078.52
2019-05-18T07:53:15.131Z,100076.10
2019-05-18T07:59:21.307Z,100080.27
2019-05-18T08:05:27.119Z,100079.72
2019-05-18T08:11:33.423Z,100082.05
2019-05-18T08:17:40.895Z,100077.14
2019-05-18T08:23:46.747Z,100075.16
2019-05-18T08:29:52.919Z,100073.28
2019-05-18T08:35:58.656Z,100074.89
2019-05-18T08:42:04.430Z,100077.75
2019-05-18T08:48:10.413Z,100072.37
2019-05-18T08:54:16.192Z,100069.02
2019-05-18T09:00:22.059Z,100080.58
2019-05-18T09:06:28.052Z,100073.12
2019-05-18T09:12:37.044Z,100072.59
2019-05-18T09:18:42.862Z,100079.23
2019-05-18T09:24:48.716Z,100076.40
2019-05-18T09:30:54.523Z,100074.44
2019-05-18T09:37:00.547Z,100078.63
2019-05-18T09:43:06.437Z,100083.30
2019-05-18T09:49:12.563Z,100084.73
2019-05-18T09:55:18.522Z,100084.52
2019-05-18T10:01:24.609Z,100083.23
2019-05-18T10:07:30.412Z,100083.34
2019-05-18T10:13:36.431Z,100081.70
2019-05-18T10:19:42.475Z,100075.52
2019-05-18T10:25:48.224Z,100078.42
2019-05-18T10:31:54.248Z,100066.23
2019-05-18T10:38:00.224Z,100059.09
2019-05-18T10:44:05.946Z,100054.73
2019-05-18T10:50:12.736Z,100063.37
2019-05-18T10:56:19.688Z,100063.61
2019-05-18T11:02:25.725Z,100064.34
2019-05-18T11:08:32.077Z,100052.34
2019-05-18T11:14:38.108Z,100052.44
2019-05-18T11:20:44.071Z,100043.03
2019-05-18T11:26:49.948Z,100043.39
2019-05-18T11:32:55.681Z,100038.28
2019-05-18T11:39:01.777Z,100033.28
2019-05-18T11:45:09.853Z,100036.47
2019-05-18T11:51:15.822Z,100024.67
2019-05-18T11:57:23.347Z,100023.01
2019-05-18T12:03:29.729Z,100012.52
2019-05-18T12:09:35.610Z,100015.44
2019-05-18T12:15:41.752Z,100007.11
2019-05-18T12:21:47.653Z,100011.58
2019-05-18T12:27:53.806Z,100007.50
2019-05-18T12:34:01.552Z,100001.93
2019-05-18T12:40:09.032Z,100004.70
2019-05-18T12:46:15.463Z,100009.62
2019-05-18T12:52:22.112Z,100002.88
2019-05-18T12:58:28.182Z,100008.96
2019-05-18T13:04:34.667Z,100003.54
2019-05-18T13:10:41.149Z,99990.06
2019-05-18T13:16:47.471Z,99987.56
2019-05-18T13:22:54.124Z,99982.97
2019-05-18T13:29:01.861Z,99979.08
2019-05-18T13:35:08.556Z,99977.42
2019-05-18T13:41:14.782Z,99971.57
2019-05-18T13:47:21.051Z,99962.00
2019-05-18T13:53:27.297Z,99961.53
2019-05-18T13:59:33.551Z,99959.47
2019-05-18T14:05:39.930Z,99964.16
2019-05-18T14:11:46.066Z,99963.46
2019-05-18T14:17:52.345Z,99954.48
2019-05-18T14:23:58.664Z,99957.67
2019-05-18T14:30:05.190Z,99957.63
2019-05-18T14:36:11.287Z,99966.91
2019-05-18T14:42:17.342Z,99963.48
2019-05-18T14:48:23.521Z,99967.73
2019-05-18T14:54:29.900Z,99962.33
2019-05-18T15:00:36.003Z,99967.84
2019-05-18T15:06:42.357Z,99961.56
2019-05-18T15:12:48.706Z,99968.59
2019-05-18T15:18:54.958Z,99975.19
2019-05-18T15:25:01.023Z,99978.28
2019-05-18T15:31:06.992Z,99981.16
2019-05-18T15:37:12.990Z,99990.92
2019-05-18T15:43:19.088Z,99999.53
2019-05-18T15:49:25.086Z,100007.60
2019-05-18T15:55:31.016Z,100007.33
2019-05-18T16:01:37.347Z,100019.58
2019-05-18T16:07:43.203Z,100019.72
2019-05-18T16:13:49.135Z,100020.61
2019-05-18T16:19:54.899Z,100028.03
2019-05-18T16:26:00.678Z,100026.44
2019-05-18T16:32:06.535Z,100025.39
2019-05-18T16:38:13.017Z,100032.67
2019-05-18T16:44:18.774Z,100028.78
2019-05-18T16:50:24.598Z,100030.83
2019-05-18T16:56:35.127Z,100034.51
2019-05-18T17:02:37.946Z,100048.19
2019-05-18T17:08:44.452Z,100047.09
2019-05-18T17:14:50.328Z,100050.31
2019-05-18T17:20:56.209Z,100053.78
2019-05-18T17:27:01.999Z,100043.16
2019-05-18T17:33:07.760Z,100045.45
2019-05-18T17:39:13.515Z,100045.59
2019-05-18T17:45:19.725Z,100049.45
2019-05-18T17:51:25.515Z,100037.97
2019-05-18T17:57:33.391Z,100043.94
2019-05-18T18:03:39.245Z,100054.87
2019-05-18T18:09:45.356Z,100053.75
2019-05-18T18:15:51.355Z,100051.41
2019-05-18T18:21:57.102Z,100058.77
2019-05-18T18:28:02.931Z,100064.97
2019-05-18T18:34:08.654Z,100052.02
2019-05-18T18:40:14.418Z,100062.84
2019-05-18T18:46:20.175Z,100077.86
2019-05-18T18:52:26.267Z,100079.89
2019-05-18T18:58:32.079Z,100076.69
2019-05-18T19:04:38.006Z,100072.48
2019-05-18T19:10:43.790Z,100061.60
2019-05-18T19:16:49.745Z,100073.97
2019-05-18T19:22:55.620Z,100090.67
2019-05-18T19:29:01.617Z,100093.34
2019-05-18T19:35:07.662Z,100090.36
2019-05-18T19:41:13.507Z,100099.01
2019-05-18T19:47:19.280Z,100102.80
2019-05-18T19:53:25.078Z,100105.80
2019-05-18T19:59:31.772Z,100111.66
2019-05-18T20:05:39.832Z,100102.95
2019-05-18T20:11:45.698Z,100097.28
2019-05-18T20:17:51.547Z,100106.31
2019-05-18T20:23:57.369Z,100102.68
2019-05-18T20:30:03.193Z,100098.84
2019-05-18T20:36:09.089Z,100100.50
2019-05-18T20:42:14.992Z,100097.69
2019-05-18T20:48:20.826Z,100105.77
2019-05-18T20:54:26.977Z,100090.86
2019-05-18T21:00:32.843Z,100087.16
2019-05-18T21:06:39.104Z,100101.98
2019-05-18T21:12:44.951Z,100113.70
2019-05-18T21:18:50.818Z,100111.66
2019-05-18T21:24:56.694Z,100114.74
2019-05-18T21:31:02.655Z,100125.37
2019-05-18T21:37:08.436Z,100112.67
2019-05-18T21:43:14.476Z,100112.50
2019-05-18T21:49:20.611Z,100112.84
2019-05-18T21:55:26.432Z,100115.36
2019-05-18T22:01:32.683Z,100123.13
2019-05-18T22:07:39.437Z,100135.57
2019-05-18T22:13:45.321Z,100133.30
2019-05-18T22:19:51.238Z,100136.66
2019-05-18T22:25:57.347Z,100125.92
2019-05-18T22:32:03.488Z,100132.31
2019-05-18T22:38:09.739Z,100111.50
2019-05-18T22:44:15.725Z,100083.78
2019-05-18T22:50:21.843Z,100086.61
2019-05-18T22:56:27.717Z,100103.07
2019-05-18T23:02:33.840Z,100109.45
2019-05-18T23:08:40.155Z,100106.67
2019-05-18T23:14:46.246Z,100110.70
2019-05-18T23:20:52.131Z,100115.94
2019-05-18T23:26:57.915Z,100109.30
2019-05-18T23:33:04.100Z,100103.50
2019-05-18T23:39:09.965Z,100105.05
2019-05-18T23:45:16.094Z,100097.89
2019-05-18T23:51:22.348Z,100095.91
2019-05-18T23:57:28.294Z,100088.19
